If you wish to contribute or participate in the discussions about articles you are invited to join SKYbrary as a registered user

 Actions

Springs Airfield

From SKYbrary Wiki

FASI
Airport
ICAO: FASI
Summary
Name Springs Airfield
Region Africa
Territory South Africa ZA.gif
Location , Gauteng
Serving Springs
Elevation 1,627.632 m
5,340 ft
5,340 ft1,627.632 m
Coordinates 26° 14' 54.28" S, 28° 23' 51.03" E
Runways
Designator Length Width Surface ROPS
3/21 1600 m5,249.344 ft
18 m59.055 ft
ASP /
4/22 0 m0 ft
0 m0 ft
ASP /
14/32 554 m1,817.585 ft
21 m68.898 ft
GRE /


METAR
Observation FASI 171900Z AUTO 08003KT //// // ////// 22/10 Q1028
Station Springs
Date/Time 17 October 2019 19:00:00
Wind direction 80°
Wind speed 03 kts
Lowest cloud amount n/a
Temperature 22°C
Dew point 10°C
Humidity 46%
QNH 1028 hPa
Weather condition n/a